Hopkinton, MA

7:54 AM EST on March 02, 2015 (GMT -0500)
Saddle Hill Estates | Change Station
CLOSE
Current Station
Personal Weather Station
Location: Hopkinton, MA
Elevation: 497 ft
Nearby Weather Stations
Active Advisory: Special Statement Active Notice: Public Information Statement

Elev 497 ft 42.24 °N, 71.55 °W | Updated 17 seconds ago

Overcast
Overcast
27.7 °F
Feels Like 28 °F
N
1.6
Wind Variable Wind from West
Gusts 5.4 mph

Today
High -- | Low -- °F
--% Chance of Precip.
Yesterday
High -- | Low -- °F
Precip. -- in
6:20 AM 5:37 PM
Waxing Gibbous, 91% visible
Pressure 29.93 in
Visibility 10.0 miles
Clouds Scattered Clouds 6000 ft
Windchill 28 °F
Dew Point 18 °F
Humidity 67%
Rainfall 0.00 in
Snow Depth Not available.
UV 0 out of 12
Pollen .40 out of 12
Air Quality Not available.
Flu Activity Not available.
METAR KORH 021154Z 28015KT 10SM SCT060 M04/M07 A2988 RMK AO2 SLP134 60000 70030 T10441067 11039 21050 56013

More Conditions Fewer Conditions

Pressure 29.93 in
Visibility 10.0 miles
Clouds Scattered Clouds 6000 ft
Windchill 28 °F
Dew Point 18 °F
Humidity 67%
Rainfall 0.00 in
Snow Depth Not available.
UV 0 out of 12
Pollen .40 out of 12
Air Quality Not available.
Flu Activity Not available.
METAR KORH 021154Z 28015KT 10SM SCT060 M04/M07 A2988 RMK AO2 SLP134 60000 70030 T10441067 11039 21050 56013

More Conditions Fewer Conditions

10-Day Weather Forecast

Almanac

Astronomy

Mar. 02, 2015 Rise Set
Actual Time
Civil Twilight
Nautical Twilight
Astronomical Twilight
Moon
Length of Visible Light
Length of Day
Tomorrow will be .
, % of the Moon is Illuminated

Today's Extremes

State Highs State Lows

Community

WunderPhotos

Upload Photos

1,801,772 photos uploaded!

WunderBlogs® & News

Nearby

Air Quality

  Air Quality AQ Index Pollutant
Not available.

Snow Depth

Station Depth Elevation

Earthquake Activity

City Distance Mag. Time & Date
Minimum magnitude displayed is 2.5.

Coastal Water Temperatures

Place Temperature

Nearby Weather Stations

Special Statement
Statement as of 2:03 AM EST on March 02, 2015

... The snow has ended but with temperatures below freezing
untreated roads will remain snow covered and slippery for the
morning rush hour...

Even though the snow has come to an end... temperatures are below
freezing. Therefore... untreated roads will remain snow covered and
slippery for the morning rush hour. Motorists should drive with
extra caution if traveling early this morning.


Frank


203 am EST Mon Mar 2 2015

... The snow has ended but with temperatures below freezing
untreated roads will remain snow covered and slippery for the
morning rush hour...

Even though the snow has come to an end... temperatures are below
freezing. Therefore... untreated roads will remain snow covered and
slippery for the morning rush hour. Motorists should drive with
extra caution if traveling early this morning.


Frank